Airport ID:KFOT
Update Time (UTC):17 SEP 21 12:59
Wind Speed (Knots):6
Wind Direction (Magnetic):100
Temperature (°C):9
Dew Point (°C):9
Humidity (%):98
Altimeter (inHg):29.94
Density Altitude (Feet):
Visibility (Miles):10
Clouds (Hundreds of feet):OVC012
Present Weather:
METAR:METAR KFOT 171255Z AUTO 11006KT 10SM OVC012 09/08 A2994 RMK AO1

The data displayed is for advisory purposes only and is not to be used for flight planning or operations.